Relevés horaires Laegern (Suisse)


Relevés horaires à Laegern - Mercredi 05 Mai 2021
Heure UTC1 Température [°C] Vent [km/h] Hum. [%] Pres.4 [hPa] Visi. [Km] Nébu. [octa] Préc.5 [mm] Cond.
2m. Res. Ros. Dir.2 Vit. Moy. Raf.3
23:00 3.9 3.9 -1.0 SSO 0.0 -- 33.3 70 850(-0.3/3h) -- -- -- --
22:00 4.5 4.5 -1.6 OSO 0.0 -- 37.0 64 850(0.7/3h) -- -- -- --
21:00 4.5 4.5 -1.2 SO 0.0 -- 48.2 66 850(0.6/3h) -- -- -- --
20:00 4.8 4.8 -1.7 O 0.0 -- 44.4 63 850(0.7/3h) -- -- -- --
19:00 5.0 5.0 -2.3 O 0.0 -- 48.2 59 850(0.4/3h) -- -- -- --
18:00 5.1 5.1 -2.3 O 0.0 -- 57.4 59 850(0.6/3h) -- -- -- --
17:00 6.0 6.0 -2.7 O 0.0 -- 51.9 54 850(1.0/3h) -- -- -- --
16:00 6.2 6.2 -1.7 O 0.0 -- 53.7 57 850(1.0/3h) -- -- -- --
15:00 5.9 5.9 -1.7 ONO 0.0 -- 57.4 58 850(1.2/3h) -- -- -- --
14:00 8.0 8.0 -4.6 O 0.0 -- 57.4 40 850(1.3/3h) -- -- -- --
13:00 6.3 6.3 -3.2 O 0.0 -- 55.6 51 850(1.5/3h) -- -- -- --
12:00 6.1 6.1 -3.7 O 0.0 -- 61.1 49 850(1.7/3h) -- -- -- --
11:00 5.8 5.8 -2.0 O 0.0 -- 61.1 57 850(1.5/3h) -- -- -- --
10:00 4.1 4.1 0.5 O 0.0 -- 46.3 77 850(1.7/3h) -- -- -- --
09:00 3.4 3.4 2.5 O 0.0 -- 40.7 94 850(1.8/3h) -- -- -- --
08:00 3.2 3.2 3.0 OSO 0.0 -- 40.7 99 850(2.3/3h) -- -- -- --
07:00 2.9 2.9 2.7 O 0.0 -- 37.0 99 850(2.5/3h) -- -- -- --
06:00 2.7 2.7 2.5 O 0.0 -- 68.5 99 850(3.0/3h) -- -- -- --
05:00 2.8 2.8 2.6 O 0.0 -- 55.6 99 850(1.6/3h) -- -- -- --
04:00 3.6 3.6 3.3 ONO 0.0 -- 68.5 98 850(0.2/3h) -- -- -- --
03:00 6.6 6.6 6.2 SO 0.0 -- 61.1 97 850(-1.9/3h) -- -- -- --
02:00 7.6 7.6 5.5 SO 0.0 -- 61.1 87 850(-1.9/3h) -- -- -- --
01:00 8.1 8.1 5.3 SSO 0.0 -- 50.0 82 850(-2.4/3h) -- -- -- --
00:00 8.0 8.0 4.8 SSO 0.0 -- 51.9 80 850(-2.1/3h) -- -- -- --

1 Coordinated Universal Time. Actuellement il est 08:00 locale et 06:00 UTC.

2 Le vent souffle depuis la direction indiquée vers la direction oposée.

3 Les rafales max. sont disponible 40 min après l'heure du relevé.

4 Pour les stations d'altitude (plus de 600m) le géopotentiel du niveau le plus proche de la pression obligatoire est indiqué.

5 Les stations disposant d'un diffuseur peuvent indiquer "trace". Cela signifie que des précipitations ont touchés le sol mais que la quantité est inférieure à 0.1 mm.

Copyright

Les données affichées sur cette page sont la propriété exclusive de Météo Suisse.

Récapitulatif de la journée
Température [°C] Vent [km/h] Ensoleillement4 [h] Precipitations totale5 [mm] Pression [Hpa]
Min1 Max.2 Moy.3 Max. Min Max.
2.7 8.0 0 68.5 3 h 42 min 0 850.0 850.0

1 Température minimale relevée entre 18:00 UTC la veille et 18:00 UTC le jour donné.

2 Température maximale relevée entre 06:00 UTC le jour donné et 06:00 UTC le lendemain.

3 Vent moyen de la journée basé sur les relevés horaires.

4 Ensoleillement en heures relevé entre 06:00 UTC la veille et 06:00 UTC le jour donné.

5 Précipitations totales tombées entre 06:00 UTC la jour donné et 06:00 UTC le lendemain.

Graphiques horaires